Main page
Satellite images 15-day forecastsClimateMarine weather Cyclones Lightning AirportsFAQ Newsletter About
Weather : Europe Africa North America South America Asia Australia-Oceania Others
Languages Contact

Milan, Italy

Malpensa

latitude: 45-37N, longitude: 008-44E, elevation: 234 m


METAR: LIMC 230120Z w?????????o?B?O025 17/????&LL????????????) 230050Z?
short-TAF: out of date (6835 hours)
long-TAF: LIMC 221700Z 2218/2324 VRB05KT 9999 SCT030 TEMPO 2218/2318 4000 TSRA

Time: 03:33 (01:33 UTC)

Current weather observation

The report was made 13 minutes ago, at 01:20 UTC  
Temperature
Pressure
Visibility

Change units

Forecast

The report was made 8 hours and 12 minutes ago, at 17:21 UTC  
Forecast valid from 22 at 18 UTC to 23 at 24 UTC
Wind 05 kt from variable directions
Visibility 10 km or more
Scattered clouds at a height of 3000 ft
Temporary
from 22 at 18 UTC to 23 at 18 UTC
Visibility 4000 m
thunderstorm rain
The information on this site is subject to a disclaimer
Weather : Europe Africa North America South America Asia Australia-Oceania Others
Satellite images 15-day forecastsClimateMarine weather Cyclones Lightning AirportsFAQ Languages Contact Newsletter About